createdAt,value
2023-03-07T00:00:14.452Z,3.09
2023-03-07T00:01:06.341Z,3.08
2023-03-07T00:01:57.919Z,3.04
2023-03-07T00:02:52.332Z,3.08
2023-03-07T00:03:44.160Z,3.08
2023-03-07T00:04:35.661Z,3.10
2023-03-07T00:05:27.654Z,3.13
2023-03-07T00:06:19.419Z,3.12
2023-03-07T00:07:10.909Z,3.11
2023-03-07T00:08:02.562Z,3.09
2023-03-07T00:08:57.756Z,3.11
2023-03-07T00:09:49.223Z,3.10
2023-03-07T00:10:40.815Z,3.11
2023-03-07T00:11:32.361Z,3.13
2023-03-07T00:12:24.543Z,3.18
2023-03-07T00:13:16.182Z,3.24
2023-03-07T00:14:08.493Z,3.26
2023-03-07T00:15:00.012Z,3.24
2023-03-07T00:15:51.498Z,3.26
2023-03-07T00:16:43.270Z,3.24
2023-03-07T00:17:38.925Z,3.22
2023-03-07T00:18:31.982Z,3.24
2023-03-07T00:19:23.489Z,3.19
2023-03-07T00:20:15.423Z,3.25
2023-03-07T00:21:10.059Z,3.35
2023-03-07T00:22:01.491Z,3.32
2023-03-07T00:22:53.177Z,3.36
2023-03-07T00:23:46.030Z,3.33
2023-03-07T00:24:37.625Z,3.36
2023-03-07T00:25:29.343Z,3.37
2023-03-07T00:26:23.554Z,3.35
2023-03-07T00:27:15.049Z,3.32
2023-03-07T00:28:07.359Z,3.34
2023-03-07T00:28:58.764Z,3.35
2023-03-07T00:29:50.320Z,3.37
2023-03-07T00:30:41.771Z,3.38
2023-03-07T00:31:34.356Z,3.41
2023-03-07T00:32:27.065Z,3.44
2023-03-07T00:33:18.573Z,3.46
2023-03-07T00:34:10.140Z,3.47
2023-03-07T00:35:02.051Z,3.44
2023-03-07T00:35:55.964Z,3.47
2023-03-07T00:36:47.526Z,3.58
2023-03-07T00:37:39.185Z,3.57
2023-03-07T00:38:32.611Z,3.51
2023-03-07T00:39:24.118Z,3.49
2023-03-07T00:40:15.677Z,3.52
2023-03-07T00:41:10.639Z,3.56
2023-03-07T00:42:02.265Z,3.57
2023-03-07T00:42:53.943Z,3.59
2023-03-07T00:43:47.022Z,3.56
2023-03-07T00:44:38.576Z,3.54
2023-03-07T00:45:30.052Z,3.54
2023-03-07T00:46:24.179Z,3.55
2023-03-07T00:47:15.701Z,3.57
2023-03-07T00:48:07.365Z,3.53
2023-03-07T00:48:59.112Z,3.54
2023-03-07T00:49:50.693Z,3.56
2023-03-07T00:50:42.225Z,3.55
2023-03-07T00:51:33.834Z,3.57
2023-03-07T00:52:25.251Z,3.57
2023-03-07T00:53:16.925Z,3.56
2023-03-07T00:54:08.432Z,3.57
2023-03-07T00:55:01.042Z,3.57
2023-03-07T00:55:58.633Z,3.62
2023-03-07T00:56:50.634Z,3.57
2023-03-07T00:57:42.059Z,3.57
2023-03-07T00:58:37.231Z,3.60
2023-03-07T00:59:29.141Z,3.60
2023-03-07T01:00:20.736Z,3.63
2023-03-07T01:01:17.229Z,3.59
2023-03-07T01:02:09.167Z,3.56
2023-03-07T01:03:02.080Z,3.59
2023-03-07T01:03:54.146Z,3.58
2023-03-07T01:04:45.975Z,3.60
2023-03-07T01:05:40.806Z,3.61
2023-03-07T01:06:34.504Z,3.62
2023-03-07T01:07:26.185Z,3.66
2023-03-07T01:08:19.658Z,3.70
2023-03-07T01:09:11.952Z,3.65
2023-03-07T01:10:03.930Z,3.74
2023-03-07T01:11:00.220Z,3.71
2023-03-07T01:11:53.260Z,3.71
2023-03-07T01:12:44.942Z,3.72
2023-03-07T01:13:38.189Z,3.77
2023-03-07T01:14:29.704Z,3.73
2023-03-07T01:15:22.417Z,3.69
2023-03-07T01:16:20.401Z,3.70
2023-03-07T01:17:11.889Z,3.63
2023-03-07T01:18:08.037Z,3.66
2023-03-07T01:19:02.473Z,3.68
2023-03-07T01:19:54.152Z,3.73
2023-03-07T01:20:45.884Z,3.73
2023-03-07T01:21:40.267Z,3.70
2023-03-07T01:22:31.695Z,3.73
2023-03-07T01:23:23.965Z,3.76
2023-03-07T01:24:16.364Z,3.76
2023-03-07T01:25:08.348Z,3.74
2023-03-07T01:26:00.130Z,3.74
2023-03-07T01:26:51.914Z,3.71
2023-03-07T01:27:43.683Z,3.71
2023-03-07T01:28:35.480Z,3.76
2023-03-07T01:29:27.046Z,3.77
2023-03-07T01:30:19.083Z,3.78
2023-03-07T01:31:11.749Z,3.74
2023-03-07T01:32:05.640Z,3.72
2023-03-07T01:32:59.682Z,3.70
2023-03-07T01:33:53.956Z,3.73
2023-03-07T01:34:46.594Z,3.73
2023-03-07T01:35:39.527Z,3.69
2023-03-07T01:36:34.551Z,3.73
2023-03-07T01:37:32.401Z,3.72
2023-03-07T01:38:24.121Z,3.72
2023-03-07T01:39:17.503Z,3.69
2023-03-07T01:40:13.869Z,3.68
2023-03-07T01:41:05.311Z,3.68
2023-03-07T01:41:56.889Z,3.71
2023-03-07T01:42:53.103Z,3.71
2023-03-07T01:43:46.593Z,3.78
2023-03-07T01:45:00.104Z,3.85
2023-03-07T01:46:17.994Z,3.76
2023-03-07T01:47:13.364Z,3.75
2023-03-07T01:48:15.619Z,3.73
2023-03-07T01:49:15.208Z,3.77
2023-03-07T01:50:13.329Z,3.75
2023-03-07T01:51:05.377Z,3.72
2023-03-07T01:52:21.016Z,3.71
2023-03-07T01:53:16.609Z,3.71
2023-03-07T01:54:12.967Z,3.67
2023-03-07T01:55:33.250Z,3.60
2023-03-07T01:56:43.965Z,3.61
2023-03-07T01:57:40.701Z,3.59
2023-03-07T01:58:34.081Z,3.61
2023-03-07T01:59:32.714Z,3.63
2023-03-07T02:00:30.051Z,3.67
2023-03-07T02:01:24.348Z,3.65
2023-03-07T02:02:22.948Z,3.66
2023-03-07T02:03:57.737Z,3.60
2023-03-07T02:05:17.819Z,3.60
2023-03-07T02:06:12.438Z,3.64
2023-03-07T02:07:05.227Z,3.61
2023-03-07T02:08:02.743Z,3.65
2023-03-07T02:08:57.145Z,3.61
2023-03-07T02:09:52.765Z,3.60
2023-03-07T02:10:44.548Z,3.58
2023-03-07T02:11:36.700Z,3.59
2023-03-07T02:12:28.376Z,3.60
2023-03-07T02:13:21.149Z,3.60
2023-03-07T02:14:13.244Z,3.59
2023-03-07T02:15:05.772Z,3.53
2023-03-07T02:16:02.035Z,3.52
2023-03-07T02:16:54.471Z,3.54
2023-03-07T02:17:46.643Z,3.51
2023-03-07T02:18:46.429Z,3.56
2023-03-07T02:19:51.706Z,3.58
2023-03-07T02:21:00.052Z,3.61
2023-03-07T02:22:11.373Z,3.60
2023-03-07T02:23:04.868Z,3.60
2023-03-07T02:24:11.763Z,3.54
2023-03-07T02:25:18.404Z,3.57
2023-03-07T02:26:30.553Z,3.52
2023-03-07T02:27:25.252Z,3.52
2023-03-07T02:28:19.009Z,3.56
2023-03-07T02:29:11.562Z,3.53
2023-03-07T02:30:06.138Z,3.50
2023-03-07T02:31:07.344Z,3.51
2023-03-07T02:32:01.650Z,3.52
2023-03-07T02:32:53.541Z,3.56
2023-03-07T02:33:45.109Z,3.56
2023-03-07T02:34:37.523Z,3.53
2023-03-07T02:35:47.767Z,3.53
2023-03-07T02:36:39.378Z,3.55
2023-03-07T02:37:44.473Z,3.47
2023-03-07T02:38:41.428Z,3.42
2023-03-07T02:39:34.508Z,3.44
2023-03-07T02:40:31.494Z,3.46
2023-03-07T02:41:32.196Z,3.47
2023-03-07T02:42:32.709Z,3.49
2023-03-07T02:43:31.664Z,3.49
2023-03-07T02:44:23.269Z,3.53
2023-03-07T02:45:17.359Z,3.47
2023-03-07T02:46:09.314Z,3.49
2023-03-07T02:47:00.934Z,3.52
2023-03-07T02:47:53.036Z,3.49
2023-03-07T02:48:44.766Z,3.48
2023-03-07T02:49:36.468Z,3.45
2023-03-07T02:50:28.627Z,3.46
2023-03-07T02:51:20.333Z,3.52
2023-03-07T02:52:12.358Z,3.56
2023-03-07T02:53:04.518Z,3.54
2023-03-07T02:53:56.121Z,3.55
2023-03-07T02:54:48.077Z,3.54
2023-03-07T02:55:39.903Z,3.60
2023-03-07T02:56:31.425Z,3.55
2023-03-07T02:57:23.078Z,3.60
2023-03-07T02:58:14.707Z,3.61
2023-03-07T02:59:06.209Z,3.75
2023-03-07T02:59:57.733Z,3.72
2023-03-07T03:00:49.326Z,3.71
2023-03-07T03:01:41.264Z,3.68
2023-03-07T03:02:32.945Z,3.65
2023-03-07T03:03:24.561Z,3.63
2023-03-07T03:04:16.346Z,3.68
2023-03-07T03:05:08.655Z,3.65
2023-03-07T03:06:00.117Z,3.69
2023-03-07T03:06:51.704Z,3.67
2023-03-07T03:07:43.235Z,3.70
2023-03-07T03:08:34.742Z,3.68
2023-03-07T03:09:26.246Z,3.63
2023-03-07T03:10:18.373Z,3.65
2023-03-07T03:11:09.833Z,3.61
2023-03-07T03:12:01.306Z,3.62
2023-03-07T03:12:55.530Z,3.59
2023-03-07T03:13:47.872Z,3.60
2023-03-07T03:14:39.639Z,3.56
2023-03-07T03:15:31.155Z,3.55
2023-03-07T03:16:22.631Z,3.51
2023-03-07T03:17:14.206Z,3.49
2023-03-07T03:18:06.476Z,3.51
2023-03-07T03:18:58.045Z,3.46
2023-03-07T03:19:50.278Z,3.52
2023-03-07T03:20:45.417Z,3.46
2023-03-07T03:21:37.382Z,3.54
2023-03-07T03:22:28.897Z,3.55
2023-03-07T03:23:20.506Z,3.55
2023-03-07T03:24:12.625Z,3.54
2023-03-07T03:25:08.536Z,3.51
2023-03-07T03:26:03.975Z,3.49
2023-03-07T03:27:00.778Z,3.51
2023-03-07T03:27:53.335Z,3.52
2023-03-07T03:28:45.311Z,3.54
2023-03-07T03:29:37.045Z,3.51
2023-03-07T03:30:32.559Z,3.48
2023-03-07T03:31:25.977Z,3.46
2023-03-07T03:32:17.578Z,3.45
2023-03-07T03:33:10.247Z,3.45
2023-03-07T03:34:02.006Z,3.45
2023-03-07T03:34:54.568Z,3.46
2023-03-07T03:35:46.247Z,3.43
2023-03-07T03:36:38.005Z,3.45
2023-03-07T03:37:33.836Z,3.47
2023-03-07T03:38:28.000Z,3.49
2023-03-07T03:39:20.948Z,3.52
2023-03-07T03:40:17.519Z,3.51
2023-03-07T03:41:15.908Z,3.52
2023-03-07T03:42:08.733Z,3.49
2023-03-07T03:43:00.291Z,3.49
2023-03-07T03:43:52.398Z,3.45
2023-03-07T03:44:44.082Z,3.45
2023-03-07T03:45:36.570Z,3.46
2023-03-07T03:46:28.146Z,3.44
2023-03-07T03:47:19.633Z,3.45
2023-03-07T03:48:11.235Z,3.44
2023-03-07T03:49:03.479Z,3.47
2023-03-07T03:49:55.092Z,3.46
2023-03-07T03:50:47.089Z,3.45
2023-03-07T03:51:38.500Z,3.45
2023-03-07T03:52:30.006Z,3.46
2023-03-07T03:53:21.645Z,3.44
2023-03-07T03:54:13.340Z,3.50
2023-03-07T03:55:05.893Z,3.47
2023-03-07T03:56:16.683Z,3.48
2023-03-07T03:57:08.329Z,3.47
2023-03-07T03:57:59.843Z,3.47
2023-03-07T03:58:54.204Z,3.45
2023-03-07T03:59:46.441Z,3.43
2023-03-07T04:00:39.482Z,3.41
2023-03-07T04:01:31.432Z,3.37
2023-03-07T04:02:23.135Z,3.37
2023-03-07T04:03:15.235Z,3.37
2023-03-07T04:04:06.670Z,3.33
2023-03-07T04:04:58.864Z,3.33
2023-03-07T04:05:52.165Z,3.38
2023-03-07T04:06:44.746Z,3.38
2023-03-07T04:07:36.627Z,3.37
2023-03-07T04:08:28.301Z,3.36
2023-03-07T04:09:19.983Z,3.39
2023-03-07T04:10:12.804Z,3.36
2023-03-07T04:11:05.249Z,3.29
2023-03-07T04:11:57.641Z,3.28
2023-03-07T04:12:49.344Z,3.27
2023-03-07T04:13:41.818Z,3.31
2023-03-07T04:14:33.235Z,3.31
2023-03-07T04:15:24.854Z,3.31
2023-03-07T04:16:17.654Z,3.30
2023-03-07T04:17:09.152Z,3.31
2023-03-07T04:18:00.796Z,3.33
2023-03-07T04:18:52.333Z,3.28
2023-03-07T04:19:43.944Z,3.30
2023-03-07T04:20:36.043Z,3.36
2023-03-07T04:21:27.536Z,3.33
2023-03-07T04:22:21.730Z,3.32
2023-03-07T04:23:13.555Z,3.29
2023-03-07T04:24:06.885Z,3.26
2023-03-07T04:24:58.397Z,3.30
2023-03-07T04:25:56.578Z,3.31
2023-03-07T04:26:48.556Z,3.31
2023-03-07T04:27:40.297Z,3.33
2023-03-07T04:28:49.281Z,3.37
2023-03-07T04:29:45.322Z,3.33
2023-03-07T04:30:41.227Z,3.31
2023-03-07T04:31:32.799Z,3.36
2023-03-07T04:32:27.826Z,3.33
2023-03-07T04:33:20.862Z,3.33
2023-03-07T04:34:13.797Z,3.31
2023-03-07T04:35:05.529Z,3.34
2023-03-07T04:35:56.979Z,3.34
2023-03-07T04:36:48.750Z,3.33
2023-03-07T04:37:40.526Z,3.34
2023-03-07T04:38:31.959Z,3.35
2023-03-07T04:39:23.554Z,3.34
2023-03-07T04:40:16.230Z,3.32
2023-03-07T04:41:12.393Z,3.30
2023-03-07T04:42:04.162Z,3.32
2023-03-07T04:43:00.087Z,3.33
2023-03-07T04:43:51.949Z,3.33
2023-03-07T04:44:43.479Z,3.32
2023-03-07T04:45:39.942Z,3.37
2023-03-07T04:46:31.572Z,3.39
2023-03-07T04:47:23.168Z,3.36
2023-03-07T04:48:14.926Z,3.39
2023-03-07T04:49:06.705Z,3.37
2023-03-07T04:49:58.650Z,3.36
2023-03-07T04:50:51.335Z,3.34
2023-03-07T04:51:44.174Z,3.39
2023-03-07T04:52:37.237Z,3.40
2023-03-07T04:53:29.372Z,3.43
2023-03-07T04:54:22.191Z,3.38
2023-03-07T04:55:15.101Z,3.42
2023-03-07T04:56:08.321Z,3.43
2023-03-07T04:57:00.450Z,3.44
2023-03-07T04:57:52.126Z,3.41
2023-03-07T04:58:44.982Z,3.42
2023-03-07T04:59:39.171Z,3.41
2023-03-07T05:00:31.213Z,3.43
2023-03-07T05:01:24.113Z,3.42
2023-03-07T05:02:15.874Z,3.43
2023-03-07T05:03:10.662Z,3.44
2023-03-07T05:04:02.579Z,3.45
2023-03-07T05:04:54.386Z,3.41
2023-03-07T05:05:46.991Z,3.40
2023-03-07T05:06:38.968Z,3.39
2023-03-07T05:07:31.702Z,3.43
2023-03-07T05:08:23.323Z,3.44
2023-03-07T05:09:14.868Z,3.39
2023-03-07T05:10:07.444Z,3.43
2023-03-07T05:10:58.959Z,3.43
2023-03-07T05:11:53.504Z,3.42
2023-03-07T05:12:45.078Z,3.37
2023-03-07T05:13:38.220Z,3.41
2023-03-07T05:14:29.725Z,3.35
2023-03-07T05:15:21.234Z,3.32
2023-03-07T05:16:12.792Z,3.32
2023-03-07T05:17:04.711Z,3.36
2023-03-07T05:17:56.230Z,3.34
2023-03-07T05:18:47.984Z,3.30
2023-03-07T05:19:39.905Z,3.34
2023-03-07T05:20:31.512Z,3.36
2023-03-07T05:21:23.073Z,3.33
2023-03-07T05:22:15.828Z,3.31
2023-03-07T05:23:08.572Z,3.31
2023-03-07T05:24:00.497Z,3.32
2023-03-07T05:24:52.264Z,3.32
2023-03-07T05:25:43.923Z,3.31
2023-03-07T05:26:37.055Z,3.33
2023-03-07T05:27:28.841Z,3.34
2023-03-07T05:28:20.598Z,3.30
2023-03-07T05:29:12.058Z,3.33
2023-03-07T05:30:05.708Z,3.29
2023-03-07T05:30:58.176Z,3.28
2023-03-07T05:31:50.012Z,3.27
2023-03-07T05:32:41.637Z,3.25
2023-03-07T05:33:35.568Z,3.27
2023-03-07T05:34:27.162Z,3.29
2023-03-07T05:35:18.843Z,3.31
2023-03-07T05:36:11.287Z,3.33
2023-03-07T05:37:03.739Z,3.32
2023-03-07T05:37:55.186Z,3.37
2023-03-07T05:38:46.841Z,3.34
2023-03-07T05:39:38.747Z,3.29
2023-03-07T05:40:30.332Z,3.28
2023-03-07T05:41:22.856Z,3.27
2023-03-07T05:42:15.533Z,3.31
2023-03-07T05:43:07.906Z,3.29
2023-03-07T05:43:59.873Z,3.28
2023-03-07T05:44:51.569Z,3.25
2023-03-07T05:45:43.962Z,3.24
2023-03-07T05:46:36.043Z,3.18
2023-03-07T05:47:30.244Z,3.25
2023-03-07T05:48:21.748Z,3.23
2023-03-07T05:49:13.291Z,3.24
2023-03-07T05:50:06.237Z,3.26
2023-03-07T05:51:01.176Z,3.24
2023-03-07T05:51:53.023Z,3.26
2023-03-07T05:52:45.771Z,3.26
2023-03-07T05:53:37.273Z,3.24
2023-03-07T05:54:28.742Z,3.24
2023-03-07T05:55:20.410Z,3.27
2023-03-07T05:56:12.759Z,3.25
2023-03-07T05:57:04.320Z,3.26
2023-03-07T05:57:55.903Z,3.32
2023-03-07T05:58:47.562Z,3.38
2023-03-07T05:59:39.062Z,3.39
2023-03-07T06:00:31.212Z,3.34
2023-03-07T06:01:25.092Z,3.34
2023-03-07T06:02:17.222Z,3.35
2023-03-07T06:03:08.768Z,3.37
2023-03-07T06:04:00.715Z,3.33
2023-03-07T06:04:52.393Z,3.38
2023-03-07T06:05:44.605Z,3.37
2023-03-07T06:06:36.520Z,3.32
2023-03-07T06:07:28.052Z,3.33
2023-03-07T06:08:20.001Z,3.32
2023-03-07T06:09:11.825Z,3.33
2023-03-07T06:10:04.842Z,3.34
2023-03-07T06:10:56.672Z,3.32
2023-03-07T06:11:49.167Z,3.36
2023-03-07T06:12:40.818Z,3.33
2023-03-07T06:13:32.516Z,3.32
2023-03-07T06:14:24.645Z,3.31
2023-03-07T06:15:16.121Z,3.38
2023-03-07T06:16:08.455Z,3.37
2023-03-07T06:17:04.707Z,3.34
2023-03-07T06:17:57.298Z,3.38
2023-03-07T06:18:49.517Z,3.41
2023-03-07T06:19:40.960Z,3.44
2023-03-07T06:20:32.668Z,3.44
2023-03-07T06:21:24.650Z,3.51
2023-03-07T06:22:16.224Z,3.51
2023-03-07T06:23:07.777Z,3.51
2023-03-07T06:23:59.513Z,3.51
2023-03-07T06:24:51.443Z,3.51
2023-03-07T06:25:43.150Z,3.52
2023-03-07T06:26:35.077Z,3.50
2023-03-07T06:27:27.050Z,3.50
2023-03-07T06:28:18.773Z,3.52
2023-03-07T06:29:10.479Z,3.53
2023-03-07T06:30:03.626Z,3.52
2023-03-07T06:30:55.681Z,3.56
2023-03-07T06:31:47.908Z,3.59
2023-03-07T06:32:39.560Z,3.58
2023-03-07T06:33:31.424Z,3.63
2023-03-07T06:34:23.404Z,3.61
2023-03-07T06:35:15.564Z,3.62
2023-03-07T06:36:10.062Z,3.65
2023-03-07T06:37:03.295Z,3.63
2023-03-07T06:37:54.854Z,3.62
2023-03-07T06:38:46.991Z,3.62
2023-03-07T06:39:38.866Z,3.63
2023-03-07T06:40:31.431Z,3.67
2023-03-07T06:41:23.179Z,3.63
2023-03-07T06:42:16.574Z,3.63
2023-03-07T06:43:10.056Z,3.69
2023-03-07T06:44:01.794Z,3.63
2023-03-07T06:44:56.351Z,3.67
2023-03-07T06:45:47.843Z,3.71
2023-03-07T06:46:40.399Z,3.72
2023-03-07T06:47:37.072Z,3.71
2023-03-07T06:48:30.874Z,3.68
2023-03-07T06:49:22.583Z,3.69
2023-03-07T06:50:16.179Z,3.68
2023-03-07T06:51:09.255Z,3.67
2023-03-07T06:52:02.546Z,3.69
2023-03-07T06:52:53.996Z,3.62
2023-03-07T06:53:45.951Z,3.64
2023-03-07T06:54:37.486Z,3.67
2023-03-07T06:55:31.041Z,3.73
2023-03-07T06:56:22.527Z,3.71
2023-03-07T06:57:14.368Z,3.67
2023-03-07T06:58:06.077Z,3.69
2023-03-07T06:58:58.190Z,3.66
2023-03-07T06:59:50.269Z,3.65
2023-03-07T07:00:41.979Z,3.63
2023-03-07T07:01:35.581Z,3.69
2023-03-07T07:02:27.635Z,3.66
2023-03-07T07:03:20.776Z,3.68
2023-03-07T07:04:12.264Z,3.71
2023-03-07T07:05:06.925Z,3.76
2023-03-07T07:05:59.094Z,3.73
2023-03-07T07:06:50.772Z,3.77
2023-03-07T07:07:42.777Z,3.75
2023-03-07T07:08:34.284Z,3.71
2023-03-07T07:09:25.985Z,3.77
2023-03-07T07:10:18.177Z,3.73
2023-03-07T07:11:10.140Z,3.77
2023-03-07T07:12:03.012Z,3.80
2023-03-07T07:12:56.686Z,3.80
2023-03-07T07:13:53.376Z,3.78
2023-03-07T07:14:47.172Z,3.80
2023-03-07T07:15:38.962Z,3.78
2023-03-07T07:16:33.605Z,3.82
2023-03-07T07:17:25.500Z,3.80
2023-03-07T07:18:17.463Z,3.80
2023-03-07T07:19:09.996Z,3.86
2023-03-07T07:20:05.318Z,3.84
2023-03-07T07:20:57.423Z,3.84
2023-03-07T07:21:50.668Z,3.90
2023-03-07T07:22:42.182Z,3.86
2023-03-07T07:23:34.121Z,3.90
2023-03-07T07:24:25.734Z,3.89
2023-03-07T07:25:18.230Z,3.89
2023-03-07T07:26:10.364Z,3.90
2023-03-07T07:27:02.100Z,3.88
2023-03-07T07:27:54.322Z,3.87
2023-03-07T07:28:46.941Z,3.96
2023-03-07T07:29:38.753Z,3.96
2023-03-07T07:30:30.450Z,3.97
2023-03-07T07:31:22.076Z,3.94
2023-03-07T07:32:13.609Z,3.91
2023-03-07T07:33:05.538Z,4.00
2023-03-07T07:33:57.188Z,4.01
2023-03-07T07:34:52.510Z,4.05
2023-03-07T07:35:44.877Z,4.05
2023-03-07T07:36:36.494Z,4.08
2023-03-07T07:37:28.101Z,4.12
2023-03-07T07:38:19.846Z,4.13
2023-03-07T07:39:12.756Z,4.11
2023-03-07T07:40:10.441Z,4.15
2023-03-07T07:41:02.569Z,4.14
2023-03-07T07:41:54.211Z,4.17
2023-03-07T07:42:54.622Z,4.18
2023-03-07T07:44:01.066Z,4.22
2023-03-07T07:44:59.819Z,4.24
2023-03-07T07:45:51.355Z,4.28
2023-03-07T07:46:45.233Z,4.28
2023-03-07T07:47:37.121Z,4.26
2023-03-07T07:48:28.665Z,4.35
2023-03-07T07:49:20.358Z,4.40
2023-03-07T07:50:14.096Z,4.37
2023-03-07T07:51:06.457Z,4.32
2023-03-07T07:52:01.580Z,4.34
2023-03-07T07:52:54.168Z,4.21
2023-03-07T07:53:45.984Z,4.17
2023-03-07T07:54:37.780Z,4.12
2023-03-07T07:55:29.351Z,4.10
2023-03-07T07:56:21.206Z,4.11
2023-03-07T07:57:12.707Z,4.15
2023-03-07T07:58:04.591Z,4.16
2023-03-07T07:58:56.367Z,4.24
2023-03-07T07:59:48.136Z,4.28
2023-03-07T08:00:39.704Z,4.23
2023-03-07T08:01:31.312Z,4.27
2023-03-07T08:02:22.794Z,4.22
2023-03-07T08:03:14.274Z,4.14
2023-03-07T08:04:05.837Z,4.10
2023-03-07T08:04:57.490Z,4.17
2023-03-07T08:05:49.035Z,4.17
2023-03-07T08:06:40.567Z,4.21
2023-03-07T08:07:32.184Z,4.18
2023-03-07T08:08:23.627Z,4.22
2023-03-07T08:09:15.286Z,4.20
2023-03-07T08:10:07.741Z,4.19
2023-03-07T08:10:59.490Z,4.16
2023-03-07T08:11:50.939Z,4.15
2023-03-07T08:12:51.268Z,4.12
2023-03-07T08:13:43.110Z,4.11
2023-03-07T08:14:34.641Z,4.07
2023-03-07T08:15:26.451Z,4.09
2023-03-07T08:16:20.183Z,4.04
2023-03-07T08:17:11.700Z,4.03
2023-03-07T08:18:03.360Z,4.09
2023-03-07T08:18:56.838Z,4.10
2023-03-07T08:19:48.284Z,4.09
2023-03-07T08:20:41.139Z,4.06
2023-03-07T08:21:32.868Z,4.03
2023-03-07T08:22:24.553Z,4.01
2023-03-07T08:23:19.035Z,4.02
2023-03-07T08:24:10.521Z,4.06
2023-03-07T08:25:01.957Z,4.06
2023-03-07T08:25:53.382Z,4.10
2023-03-07T08:26:44.849Z,4.11
2023-03-07T08:27:36.286Z,4.14
2023-03-07T08:28:27.709Z,4.15
2023-03-07T08:29:19.599Z,4.18
2023-03-07T08:30:12.219Z,4.20
2023-03-07T08:31:13.490Z,4.26
2023-03-07T08:32:05.284Z,4.27
2023-03-07T08:32:57.282Z,4.27
2023-03-07T08:33:49.900Z,4.32
2023-03-07T08:34:41.356Z,4.28
2023-03-07T08:35:32.864Z,4.30
2023-03-07T08:36:24.836Z,4.31
2023-03-07T08:37:16.330Z,4.31
2023-03-07T08:38:08.895Z,4.28
2023-03-07T08:39:00.387Z,4.32
2023-03-07T08:39:52.033Z,4.39
2023-03-07T08:40:43.677Z,4.36
2023-03-07T08:41:35.192Z,4.40
2023-03-07T08:42:26.714Z,4.31
2023-03-07T08:43:18.195Z,4.36
2023-03-07T08:44:09.933Z,4.33
2023-03-07T08:45:01.374Z,4.34
2023-03-07T08:45:53.030Z,4.35
2023-03-07T08:46:44.646Z,4.41
2023-03-07T08:47:36.682Z,4.39
2023-03-07T08:48:29.009Z,4.40
2023-03-07T08:49:20.685Z,4.38
2023-03-07T08:50:12.728Z,4.36
2023-03-07T08:51:07.266Z,4.40
2023-03-07T08:51:58.942Z,4.48
2023-03-07T08:52:50.968Z,4.46
2023-03-07T08:53:44.354Z,4.56
2023-03-07T08:54:36.129Z,4.56
2023-03-07T08:55:28.490Z,4.50
2023-03-07T08:56:20.306Z,4.53
2023-03-07T08:57:11.999Z,4.62
2023-03-07T08:58:03.911Z,4.57
2023-03-07T08:58:55.715Z,4.61
2023-03-07T08:59:47.225Z,4.62
2023-03-07T09:00:39.396Z,4.70
2023-03-07T09:01:30.955Z,4.71
2023-03-07T09:02:22.562Z,4.67
2023-03-07T09:03:14.000Z,4.69
2023-03-07T09:04:05.835Z,4.78
2023-03-07T09:04:57.328Z,4.80
2023-03-07T09:05:49.145Z,4.88
2023-03-07T09:06:40.971Z,4.89
2023-03-07T09:07:32.528Z,4.94
2023-03-07T09:08:24.606Z,4.90
2023-03-07T09:09:16.390Z,4.89
2023-03-07T09:10:08.625Z,4.91
2023-03-07T09:11:03.374Z,4.91
2023-03-07T09:11:54.942Z,4.86
2023-03-07T09:12:48.111Z,4.85
2023-03-07T09:13:51.114Z,4.88
2023-03-07T09:14:43.700Z,4.84
2023-03-07T09:15:38.985Z,4.85
2023-03-07T09:16:30.564Z,4.84
2023-03-07T09:17:31.064Z,4.78
2023-03-07T09:18:23.160Z,4.86
2023-03-07T09:19:14.600Z,4.89
2023-03-07T09:20:08.959Z,4.88
2023-03-07T09:21:01.921Z,4.83
2023-03-07T09:21:53.338Z,4.88
2023-03-07T09:22:46.675Z,4.83
2023-03-07T09:23:38.379Z,4.91
2023-03-07T09:24:30.220Z,4.96
2023-03-07T09:25:22.729Z,4.96
2023-03-07T09:26:14.637Z,5.02
2023-03-07T09:27:06.051Z,4.95
2023-03-07T09:27:57.772Z,4.94
2023-03-07T09:28:49.500Z,4.97
2023-03-07T09:29:40.946Z,4.98
2023-03-07T09:30:32.428Z,4.99
2023-03-07T09:31:24.235Z,4.92
2023-03-07T09:32:16.205Z,4.98
2023-03-07T09:33:07.705Z,4.99
2023-03-07T09:33:59.337Z,4.94
2023-03-07T09:34:52.368Z,4.95
2023-03-07T09:35:44.045Z,4.83
2023-03-07T09:36:37.055Z,4.86
2023-03-07T09:37:28.582Z,4.95
2023-03-07T09:38:20.037Z,5.07
2023-03-07T09:39:14.575Z,5.13
2023-03-07T09:40:09.970Z,5.25
2023-03-07T09:41:21.632Z,5.27
2023-03-07T09:42:36.570Z,5.25
2023-03-07T09:43:46.467Z,5.18
2023-03-07T09:45:39.386Z,5.32
2023-03-07T09:46:54.650Z,5.34
2023-03-07T09:48:32.014Z,5.33
2023-03-07T09:49:46.128Z,5.43
2023-03-07T09:50:49.636Z,5.51
2023-03-07T09:51:44.332Z,5.69
2023-03-07T09:52:40.938Z,5.79
2023-03-07T09:53:52.808Z,5.71
2023-03-07T09:54:55.657Z,5.69
2023-03-07T09:55:51.243Z,5.74
2023-03-07T09:56:49.444Z,5.56
2023-03-07T09:57:48.291Z,5.70
2023-03-07T09:58:46.695Z,5.73
2023-03-07T09:59:43.238Z,5.77
2023-03-07T10:00:36.576Z,5.81
2023-03-07T10:01:34.754Z,5.61
2023-03-07T10:02:33.397Z,5.62
2023-03-07T10:03:31.457Z,5.68
2023-03-07T10:04:35.244Z,5.71
2023-03-07T10:05:34.254Z,5.73
2023-03-07T10:06:41.325Z,5.85
2023-03-07T10:07:35.413Z,5.81
2023-03-07T10:08:33.235Z,5.66
2023-03-07T10:09:25.642Z,5.75
2023-03-07T10:10:25.926Z,5.73
2023-03-07T10:11:40.399Z,5.81
2023-03-07T10:12:56.920Z,5.90
2023-03-07T10:14:07.075Z,5.79
2023-03-07T10:15:13.472Z,5.81
2023-03-07T10:16:27.013Z,5.80
2023-03-07T10:17:44.052Z,5.83
2023-03-07T10:19:04.844Z,5.75
2023-03-07T10:20:24.136Z,5.72
2023-03-07T10:21:21.713Z,5.73
2023-03-07T10:22:36.101Z,5.69
2023-03-07T10:24:00.175Z,5.72
2023-03-07T10:25:17.922Z,5.81
2023-03-07T10:26:16.808Z,5.86
2023-03-07T10:27:12.669Z,5.90
2023-03-07T10:28:31.832Z,5.77
2023-03-07T10:29:27.141Z,5.74
2023-03-07T10:30:20.996Z,5.76
2023-03-07T10:31:23.971Z,5.76
2023-03-07T10:32:39.739Z,5.61
2023-03-07T10:33:31.633Z,5.62
2023-03-07T10:34:30.713Z,5.47
2023-03-07T10:35:38.277Z,5.41
2023-03-07T10:36:53.324Z,5.43
2023-03-07T10:38:20.806Z,5.31
2023-03-07T10:39:29.111Z,5.21
2023-03-07T10:40:28.438Z,5.13
2023-03-07T10:41:22.430Z,5.14
2023-03-07T10:42:17.398Z,5.12
2023-03-07T10:43:24.230Z,5.11
2023-03-07T10:44:19.847Z,5.06
2023-03-07T10:45:14.751Z,5.04
2023-03-07T10:46:25.764Z,4.89
2023-03-07T10:47:24.341Z,4.95
2023-03-07T10:48:20.741Z,5.02
2023-03-07T10:49:23.116Z,4.97
2023-03-07T10:50:42.795Z,4.91
2023-03-07T10:52:01.747Z,4.90
2023-03-07T10:52:58.462Z,4.94
2023-03-07T10:53:50.555Z,4.99
2023-03-07T10:54:42.072Z,5.00
2023-03-07T10:55:36.973Z,5.03
2023-03-07T10:56:28.429Z,5.02
2023-03-07T10:57:27.743Z,4.93
2023-03-07T10:58:26.844Z,4.97
2023-03-07T10:59:24.905Z,4.91
2023-03-07T11:00:18.706Z,4.94
2023-03-07T11:01:17.658Z,4.93
2023-03-07T11:02:46.594Z,5.01
2023-03-07T11:03:53.825Z,5.02
2023-03-07T11:04:47.191Z,5.03
2023-03-07T11:05:40.615Z,5.03
2023-03-07T11:06:41.388Z,5.09
2023-03-07T11:07:36.297Z,5.04
2023-03-07T11:08:34.459Z,5.12
2023-03-07T11:09:31.668Z,5.11
2023-03-07T11:10:34.616Z,5.16
2023-03-07T11:11:32.229Z,5.23
2023-03-07T11:12:26.783Z,5.19
2023-03-07T11:13:21.581Z,5.23
2023-03-07T11:14:15.694Z,5.18
2023-03-07T11:15:19.265Z,5.20
2023-03-07T11:16:21.393Z,5.25
2023-03-07T11:17:38.513Z,5.33
2023-03-07T11:18:40.594Z,5.37
2023-03-07T11:19:43.278Z,5.30
2023-03-07T11:21:00.999Z,5.22
2023-03-07T11:21:54.848Z,5.27
2023-03-07T11:22:46.308Z,5.27
2023-03-07T11:23:37.836Z,5.13
2023-03-07T11:24:34.620Z,5.19
2023-03-07T11:25:26.621Z,5.21
2023-03-07T11:26:22.909Z,5.30
2023-03-07T11:27:22.889Z,5.34
2023-03-07T11:28:34.626Z,5.42
2023-03-07T11:29:28.385Z,5.52
2023-03-07T11:30:25.084Z,5.52
2023-03-07T11:31:31.776Z,5.29
2023-03-07T11:32:24.699Z,5.21
2023-03-07T11:33:37.213Z,5.13
2023-03-07T11:34:41.823Z,5.13
2023-03-07T11:36:03.811Z,5.07
2023-03-07T11:37:14.642Z,5.09
2023-03-07T11:38:20.868Z,5.05
2023-03-07T11:39:27.751Z,4.99
2023-03-07T11:40:31.448Z,5.01
2023-03-07T11:41:30.612Z,5.01
2023-03-07T11:42:34.700Z,5.02
2023-03-07T11:43:47.227Z,5.06
2023-03-07T11:45:02.977Z,5.07
2023-03-07T11:46:08.096Z,5.04
2023-03-07T11:47:20.906Z,5.12
2023-03-07T11:49:07.911Z,5.02
2023-03-07T11:50:11.968Z,5.04
2023-03-07T11:51:11.815Z,4.90
2023-03-07T11:52:21.883Z,4.77
2023-03-07T11:53:50.165Z,4.59
2023-03-07T11:55:04.937Z,4.42
2023-03-07T11:56:22.331Z,4.24
2023-03-07T11:58:01.237Z,4.10
2023-03-07T11:59:07.698Z,4.05
2023-03-07T12:00:35.154Z,4.00
2023-03-07T12:01:46.110Z,3.99
2023-03-07T12:02:46.790Z,3.87
2023-03-07T12:03:47.030Z,3.81
2023-03-07T12:05:05.596Z,3.80
2023-03-07T12:06:28.284Z,3.78
2023-03-07T12:07:58.234Z,3.85
2023-03-07T12:09:03.376Z,3.72
2023-03-07T12:10:06.248Z,3.71
2023-03-07T12:11:38.288Z,3.67
2023-03-07T12:12:54.079Z,3.62
2023-03-07T12:14:03.479Z,3.59
2023-03-07T12:15:32.278Z,3.61
2023-03-07T12:16:51.935Z,3.61
2023-03-07T12:18:04.571Z,3.61
2023-03-07T12:19:08.389Z,3.59